createdAt,value
2023-01-18T00:01:15.497Z,3.48
2023-01-18T00:03:44.841Z,3.38
2023-01-18T00:06:13.137Z,3.48
2023-01-18T00:08:42.268Z,3.46
2023-01-18T00:11:17.039Z,3.45
2023-01-18T00:13:45.841Z,3.61
2023-01-18T00:16:17.089Z,3.38
2023-01-18T00:18:51.783Z,3.43
2023-01-18T00:21:19.747Z,3.66
2023-01-18T00:23:47.591Z,3.70
2023-01-18T00:26:15.820Z,3.81
2023-01-18T00:28:44.548Z,3.69
2023-01-18T00:31:13.718Z,3.85
2023-01-18T00:33:43.919Z,3.73
2023-01-18T00:36:15.068Z,3.74
2023-01-18T00:38:51.496Z,3.81
2023-01-18T00:41:20.543Z,3.76
2023-01-18T00:43:48.437Z,3.67
2023-01-18T00:46:18.525Z,3.76
2023-01-18T00:48:46.579Z,3.76
2023-01-18T00:51:19.744Z,3.82
2023-01-18T00:53:48.540Z,3.83
2023-01-18T00:56:18.361Z,3.78
2023-01-18T00:58:46.782Z,3.73
2023-01-18T01:01:15.609Z,3.86
2023-01-18T01:04:00.915Z,3.75
2023-01-18T01:06:45.860Z,3.88
2023-01-18T01:09:17.809Z,3.84
2023-01-18T01:12:00.307Z,3.86
2023-01-18T01:14:46.045Z,3.73
2023-01-18T01:17:31.619Z,3.71
2023-01-18T01:20:17.439Z,3.89
2023-01-18T01:23:04.702Z,3.82
2023-01-18T01:25:50.210Z,3.67
2023-01-18T01:28:18.615Z,3.68
2023-01-18T01:30:47.430Z,3.54
2023-01-18T01:33:15.713Z,3.59
2023-01-18T01:35:44.244Z,3.69
2023-01-18T01:38:13.755Z,3.60
2023-01-18T01:40:41.956Z,3.67
2023-01-18T01:43:13.789Z,3.58
2023-01-18T01:45:42.188Z,3.52
2023-01-18T01:48:12.019Z,3.73
2023-01-18T01:50:41.491Z,3.63
2023-01-18T01:53:11.172Z,3.70
2023-01-18T01:55:42.621Z,3.67
2023-01-18T01:58:15.421Z,3.55
2023-01-18T02:00:44.828Z,3.53
2023-01-18T02:03:19.267Z,3.59
2023-01-18T02:05:51.497Z,3.54
2023-01-18T02:08:23.313Z,3.54
2023-01-18T02:10:53.716Z,3.36
2023-01-18T02:13:23.998Z,3.33
2023-01-18T02:16:00.516Z,3.46
2023-01-18T02:18:33.703Z,3.41
2023-01-18T02:21:14.155Z,3.49
2023-01-18T02:24:11.021Z,3.44
2023-01-18T02:27:10.211Z,3.58
2023-01-18T02:29:59.876Z,3.60
2023-01-18T02:32:42.042Z,3.77
2023-01-18T02:35:14.294Z,3.61
2023-01-18T02:37:50.503Z,3.72
2023-01-18T02:40:26.153Z,3.73
2023-01-18T02:43:12.115Z,3.74
2023-01-18T02:46:02.917Z,3.74
2023-01-18T02:48:35.220Z,3.63
2023-01-18T02:51:03.566Z,3.59
2023-01-18T02:53:32.685Z,3.63
2023-01-18T02:56:05.213Z,3.52
2023-01-18T02:58:35.674Z,3.61
2023-01-18T03:01:11.823Z,3.43
2023-01-18T03:03:45.217Z,3.49
2023-01-18T03:06:13.822Z,3.61
2023-01-18T03:08:46.394Z,3.58
2023-01-18T03:11:20.559Z,3.59
2023-01-18T03:14:00.974Z,3.55
2023-01-18T03:16:41.039Z,3.43
2023-01-18T03:19:32.730Z,3.54
2023-01-18T03:22:03.883Z,3.40
2023-01-18T03:24:31.271Z,3.46
2023-01-18T03:27:18.106Z,3.48
2023-01-18T03:30:04.951Z,3.41
2023-01-18T03:32:53.553Z,3.45
2023-01-18T03:35:27.117Z,3.33
2023-01-18T03:37:58.871Z,3.24
2023-01-18T03:40:31.201Z,3.32
2023-01-18T03:43:05.559Z,3.24
2023-01-18T03:45:39.359Z,3.20
2023-01-18T03:48:10.844Z,3.30
2023-01-18T03:50:47.600Z,3.31
2023-01-18T03:53:23.568Z,3.30
2023-01-18T03:55:57.816Z,3.14
2023-01-18T03:58:34.109Z,3.26
2023-01-18T04:01:08.175Z,3.44
2023-01-18T04:03:38.168Z,3.44
2023-01-18T04:06:08.973Z,3.32
2023-01-18T04:08:36.913Z,3.13
2023-01-18T04:11:05.044Z,3.04
2023-01-18T04:13:33.274Z,3.04
2023-01-18T04:16:01.258Z,3.02
2023-01-18T04:18:29.431Z,3.08
2023-01-18T04:20:58.946Z,2.98
2023-01-18T04:23:26.961Z,2.97
2023-01-18T04:25:55.243Z,3.09
2023-01-18T04:28:27.195Z,2.91
2023-01-18T04:30:56.858Z,2.85
2023-01-18T04:33:26.876Z,2.86
2023-01-18T04:35:55.903Z,2.72
2023-01-18T04:38:25.720Z,2.76
2023-01-18T04:40:54.930Z,2.85
2023-01-18T04:43:23.067Z,2.94
2023-01-18T04:45:55.563Z,2.89
2023-01-18T04:48:24.449Z,3.01
2023-01-18T04:50:53.739Z,2.93
2023-01-18T04:53:22.545Z,2.83
2023-01-18T04:55:52.258Z,2.93
2023-01-18T04:58:20.372Z,2.91
2023-01-18T05:00:48.805Z,2.83
2023-01-18T05:03:16.924Z,2.89
2023-01-18T05:05:45.024Z,2.92
2023-01-18T05:08:13.063Z,2.84
2023-01-18T05:10:41.586Z,2.86
2023-01-18T05:13:11.367Z,2.92
2023-01-18T05:15:41.175Z,2.95
2023-01-18T05:18:09.886Z,2.92
2023-01-18T05:20:38.311Z,2.97
2023-01-18T05:23:11.102Z,2.88
2023-01-18T05:25:40.487Z,2.78
2023-01-18T05:28:09.360Z,2.71
2023-01-18T05:30:43.164Z,2.80
2023-01-18T05:33:11.368Z,2.71
2023-01-18T05:35:39.957Z,2.79
2023-01-18T05:38:08.552Z,2.64
2023-01-18T05:40:36.885Z,2.58
2023-01-18T05:43:05.285Z,2.61
2023-01-18T05:45:34.597Z,2.53
2023-01-18T05:48:04.910Z,2.71
2023-01-18T05:50:34.117Z,2.63
2023-01-18T05:53:15.898Z,2.61
2023-01-18T05:55:46.177Z,2.67
2023-01-18T05:58:14.604Z,2.53
2023-01-18T06:00:43.278Z,2.59
2023-01-18T06:03:13.154Z,2.73
2023-01-18T06:05:41.195Z,2.75
2023-01-18T06:08:09.283Z,2.55
2023-01-18T06:10:38.956Z,2.48
2023-01-18T06:13:07.694Z,2.54
2023-01-18T06:15:37.529Z,2.50
2023-01-18T06:18:08.426Z,2.60
2023-01-18T06:20:38.828Z,2.62
2023-01-18T06:23:07.137Z,2.62
2023-01-18T06:25:35.226Z,2.63
2023-01-18T06:28:05.104Z,2.60
2023-01-18T06:30:34.648Z,2.54
2023-01-18T06:33:06.790Z,2.59
2023-01-18T06:35:35.440Z,2.39
2023-01-18T06:38:06.227Z,2.40
2023-01-18T06:40:34.278Z,2.44
2023-01-18T06:43:02.636Z,2.35
2023-01-18T06:45:30.889Z,2.12
2023-01-18T06:47:59.146Z,2.29
2023-01-18T06:50:28.233Z,2.34
2023-01-18T06:52:56.919Z,2.40
2023-01-18T06:55:27.353Z,2.32
2023-01-18T06:57:57.160Z,2.33
2023-01-18T07:00:25.624Z,2.34
2023-01-18T07:02:53.959Z,2.29
2023-01-18T07:05:22.771Z,2.23
2023-01-18T07:07:51.028Z,2.08
2023-01-18T07:10:19.447Z,2.27
2023-01-18T07:12:50.875Z,2.05
2023-01-18T07:15:22.967Z,2.00
2023-01-18T07:17:51.338Z,2.08
2023-01-18T07:20:20.344Z,1.98
2023-01-18T07:22:52.588Z,2.01
2023-01-18T07:25:22.967Z,1.77
2023-01-18T07:27:52.927Z,1.84
2023-01-18T07:30:22.617Z,1.84
2023-01-18T07:32:52.973Z,1.88
2023-01-18T07:35:24.702Z,2.00
2023-01-18T07:37:54.892Z,2.08
2023-01-18T07:40:23.725Z,1.98
2023-01-18T07:42:59.210Z,2.05
2023-01-18T07:45:28.145Z,2.07
2023-01-18T07:47:56.433Z,1.87
2023-01-18T07:50:24.667Z,1.82
2023-01-18T07:52:53.168Z,2.02
2023-01-18T07:55:21.954Z,2.06
2023-01-18T07:57:50.400Z,2.01
2023-01-18T08:00:22.363Z,2.10
2023-01-18T08:02:51.835Z,2.04
2023-01-18T08:05:24.268Z,2.02
2023-01-18T08:07:53.721Z,2.11
2023-01-18T08:10:22.075Z,2.05
2023-01-18T08:12:51.516Z,1.91
2023-01-18T08:15:21.606Z,1.97
2023-01-18T08:17:51.196Z,2.17
2023-01-18T08:20:20.904Z,2.02
2023-01-18T08:22:49.151Z,2.06
2023-01-18T08:25:18.587Z,2.21
2023-01-18T08:27:47.221Z,2.28
2023-01-18T08:30:16.317Z,2.31
2023-01-18T08:32:46.516Z,2.28
2023-01-18T08:35:15.717Z,2.16
2023-01-18T08:37:44.645Z,2.09
2023-01-18T08:40:15.959Z,2.32
2023-01-18T08:42:45.642Z,2.32
2023-01-18T08:45:14.842Z,2.37
2023-01-18T08:47:43.938Z,2.47
2023-01-18T08:50:14.081Z,2.42
2023-01-18T08:52:42.694Z,2.61
2023-01-18T08:55:11.893Z,2.73
2023-01-18T08:57:40.694Z,2.71
2023-01-18T09:00:13.095Z,2.73
2023-01-18T09:02:43.112Z,2.87
2023-01-18T09:05:12.186Z,2.89
2023-01-18T09:07:46.868Z,2.88
2023-01-18T09:10:17.441Z,2.86
2023-01-18T09:12:46.226Z,2.64
2023-01-18T09:15:16.227Z,2.58
2023-01-18T09:17:45.164Z,2.75
2023-01-18T09:20:16.068Z,2.66
2023-01-18T09:22:47.871Z,2.67
2023-01-18T09:25:18.177Z,2.67
2023-01-18T09:27:46.939Z,2.80
2023-01-18T09:30:17.935Z,2.84
2023-01-18T09:32:46.669Z,2.80
2023-01-18T09:35:18.420Z,2.88
2023-01-18T09:37:48.188Z,2.82
2023-01-18T09:40:20.026Z,3.02
2023-01-18T09:42:51.324Z,3.06
2023-01-18T09:45:31.292Z,3.10
2023-01-18T09:51:57.222Z,2.99
2023-01-18T09:54:42.118Z,3.02
2023-01-18T09:57:25.392Z,3.19
2023-01-18T09:59:57.443Z,3.13
2023-01-18T10:02:30.919Z,3.08
2023-01-18T10:05:06.354Z,2.98
2023-01-18T10:07:40.463Z,2.98
2023-01-18T10:10:19.208Z,3.22
2023-01-18T10:12:56.285Z,3.09
2023-01-18T10:15:30.154Z,3.16
2023-01-18T10:19:12.026Z,3.03
2023-01-18T10:21:51.853Z,3.13
2023-01-18T10:24:32.056Z,3.20
2023-01-18T10:27:18.821Z,3.32
2023-01-18T10:30:03.326Z,3.49
2023-01-18T10:32:36.274Z,3.42
2023-01-18T10:35:14.752Z,3.41
2023-01-18T10:37:46.593Z,3.52
2023-01-18T10:40:16.644Z,3.40
2023-01-18T10:42:48.821Z,3.53
2023-01-18T10:45:22.434Z,3.56
2023-01-18T10:47:52.800Z,3.61
2023-01-18T10:50:24.864Z,3.80
2023-01-18T10:52:52.975Z,3.70
2023-01-18T10:55:22.641Z,3.59
2023-01-18T10:57:54.903Z,3.93
2023-01-18T11:00:30.697Z,3.77
2023-01-18T11:03:00.956Z,3.91
2023-01-18T11:05:32.257Z,3.92
2023-01-18T11:08:15.432Z,4.06
2023-01-18T11:10:44.500Z,4.04
2023-01-18T11:13:28.869Z,4.01
2023-01-18T11:16:06.567Z,4.09
2023-01-18T11:18:34.770Z,4.08
2023-01-18T11:21:05.090Z,4.05
2023-01-18T11:23:37.275Z,4.00
2023-01-18T11:26:08.239Z,4.13
2023-01-18T11:28:40.855Z,4.19
2023-01-18T11:31:13.050Z,4.08
2023-01-18T11:33:51.053Z,4.25
2023-01-18T11:36:20.909Z,4.37
2023-01-18T11:38:49.397Z,4.46
2023-01-18T11:41:21.506Z,4.62
2023-01-18T11:44:03.452Z,4.54
2023-01-18T11:46:38.988Z,4.51
2023-01-18T11:49:22.921Z,4.52
2023-01-18T11:51:55.655Z,4.62
2023-01-18T11:54:29.471Z,4.62
2023-01-18T11:57:02.462Z,4.70
2023-01-18T11:59:36.246Z,5.05
2023-01-18T12:02:46.151Z,5.01
2023-01-18T12:05:28.699Z,4.84
2023-01-18T12:08:07.725Z,4.81
2023-01-18T12:10:48.370Z,5.10
2023-01-18T12:13:34.667Z,5.27
2023-01-18T12:16:15.730Z,5.44
2023-01-18T12:19:16.157Z,5.37
2023-01-18T12:21:54.701Z,5.32
2023-01-18T12:24:35.485Z,5.43
2023-01-18T12:27:16.448Z,5.71
2023-01-18T12:30:21.547Z,5.49
2023-01-18T12:33:18.635Z,5.48
2023-01-18T12:36:09.939Z,5.59
2023-01-18T12:38:45.363Z,5.59
2023-01-18T12:41:27.281Z,5.50
2023-01-18T12:44:11.632Z,5.78
2023-01-18T12:46:47.997Z,5.73
2023-01-18T12:49:21.392Z,5.80
2023-01-18T12:52:06.074Z,5.94
2023-01-18T12:54:46.284Z,5.97
2023-01-18T12:57:17.143Z,5.90
2023-01-18T12:59:52.674Z,5.99
2023-01-18T13:02:32.036Z,5.91
2023-01-18T13:05:08.952Z,5.76
2023-01-18T13:07:42.955Z,5.68
2023-01-18T13:10:18.021Z,5.75
2023-01-18T13:12:47.808Z,5.42
2023-01-18T13:15:27.190Z,5.47
2023-01-18T13:18:03.864Z,5.22
2023-01-18T13:20:42.806Z,5.44
2023-01-18T13:23:23.871Z,5.30
2023-01-18T13:25:59.991Z,5.12
2023-01-18T13:28:28.936Z,5.23
2023-01-18T13:31:01.970Z,5.10
2023-01-18T13:33:34.017Z,5.37
2023-01-18T13:36:09.037Z,5.27
2023-01-18T13:38:41.927Z,5.41
2023-01-18T13:41:13.071Z,5.32
2023-01-18T13:44:04.821Z,5.21
2023-01-18T13:46:36.687Z,5.18
2023-01-18T13:49:37.268Z,5.30
2023-01-18T13:52:30.448Z,5.37
2023-01-18T13:55:05.505Z,5.30
2023-01-18T13:57:36.387Z,5.03
2023-01-18T14:00:07.468Z,5.24
2023-01-18T14:02:43.336Z,5.28
2023-01-18T14:05:25.025Z,5.22
2023-01-18T14:07:58.924Z,5.17
2023-01-18T14:10:31.919Z,4.94
2023-01-18T14:13:02.605Z,5.03
2023-01-18T14:15:45.434Z,4.96
2023-01-18T14:18:20.992Z,5.08
2023-01-18T14:21:13.176Z,5.11
2023-01-18T14:24:14.623Z,5.14
2023-01-18T14:26:45.226Z,5.12
2023-01-18T14:29:18.948Z,5.06
2023-01-18T14:31:51.330Z,5.01
2023-01-18T14:34:39.534Z,4.89
2023-01-18T14:37:27.125Z,4.90
2023-01-18T14:40:18.523Z,5.05
2023-01-18T14:42:51.910Z,5.08
2023-01-18T14:45:29.965Z,4.79
2023-01-18T14:48:01.493Z,4.80
2023-01-18T14:50:35.496Z,4.93
2023-01-18T14:53:04.884Z,4.86
2023-01-18T14:55:36.594Z,4.94
2023-01-18T14:58:14.420Z,4.87
2023-01-18T15:00:47.436Z,4.86
2023-01-18T15:03:22.102Z,4.71
2023-01-18T15:06:00.424Z,4.68
2023-01-18T15:08:30.113Z,4.83
2023-01-18T15:11:01.372Z,4.79
2023-01-18T15:13:30.828Z,4.83
2023-01-18T15:16:01.355Z,4.72
2023-01-18T15:18:30.833Z,4.73
2023-01-18T15:21:03.922Z,4.72
2023-01-18T15:23:36.553Z,4.63
2023-01-18T15:26:06.244Z,4.71
2023-01-18T15:28:35.341Z,4.57
2023-01-18T15:31:09.129Z,4.57
2023-01-18T15:33:38.427Z,4.69
2023-01-18T15:36:07.443Z,4.58
2023-01-18T15:38:35.746Z,4.62
2023-01-18T15:41:10.988Z,4.47
2023-01-18T15:43:42.304Z,4.50
2023-01-18T15:46:14.117Z,4.59
2023-01-18T15:48:49.970Z,4.23
2023-01-18T15:51:20.401Z,4.40
2023-01-18T15:53:52.526Z,4.42
2023-01-18T15:56:26.598Z,4.27
2023-01-18T15:58:56.313Z,4.29
2023-01-18T16:01:28.204Z,4.21
2023-01-18T16:03:59.602Z,4.26
2023-01-18T16:06:32.994Z,3.98
2023-01-18T16:09:01.603Z,3.96
2023-01-18T16:11:33.905Z,3.73
2023-01-18T16:14:07.736Z,3.80
2023-01-18T16:16:39.302Z,3.98
2023-01-18T16:19:18.515Z,3.97
2023-01-18T16:21:49.976Z,4.03
2023-01-18T16:24:27.351Z,4.09
2023-01-18T16:27:01.028Z,3.92
2023-01-18T16:29:29.078Z,3.74
2023-01-18T16:32:30.229Z,3.81
2023-01-18T16:35:01.556Z,3.79
2023-01-18T16:37:30.663Z,3.68
2023-01-18T16:39:58.962Z,3.97
2023-01-18T16:42:37.569Z,3.86
2023-01-18T16:45:14.113Z,3.94
2023-01-18T16:47:42.644Z,3.81
2023-01-18T16:50:16.098Z,3.47
2023-01-18T16:52:44.962Z,3.33
2023-01-18T16:55:14.705Z,3.39
2023-01-18T16:57:45.300Z,3.44
2023-01-18T17:00:19.423Z,3.48
2023-01-18T17:02:49.778Z,3.36
2023-01-18T17:05:19.512Z,3.42
2023-01-18T17:07:48.547Z,3.52
2023-01-18T17:10:23.767Z,3.47
2023-01-18T17:12:53.305Z,3.43
2023-01-18T17:15:21.421Z,3.13
2023-01-18T17:17:50.354Z,3.28
2023-01-18T17:20:23.931Z,3.20
2023-01-18T17:22:54.069Z,3.21
2023-01-18T17:25:24.338Z,3.09
2023-01-18T17:27:56.987Z,2.88
2023-01-18T17:30:25.859Z,2.90
2023-01-18T17:32:54.202Z,3.01
2023-01-18T17:35:24.912Z,3.03
2023-01-18T17:38:00.746Z,3.10
2023-01-18T17:40:41.700Z,3.13
2023-01-18T17:43:17.349Z,3.18
2023-01-18T17:45:59.785Z,3.03
2023-01-18T17:48:28.784Z,3.10
2023-01-18T17:50:57.204Z,3.23
2023-01-18T17:53:25.841Z,3.51
2023-01-18T17:55:55.170Z,3.36
2023-01-18T17:58:24.609Z,3.42
2023-01-18T18:00:53.734Z,3.68
2023-01-18T18:03:22.375Z,3.56
2023-01-18T18:05:50.999Z,3.68
2023-01-18T18:08:20.052Z,3.80
2023-01-18T18:10:49.467Z,3.68
2023-01-18T18:13:19.179Z,3.56
2023-01-18T18:15:49.826Z,3.37
2023-01-18T18:18:22.891Z,3.46
2023-01-18T18:20:52.109Z,3.51
2023-01-18T18:23:20.123Z,3.38
2023-01-18T18:25:48.541Z,3.41
2023-01-18T18:28:16.612Z,3.50
2023-01-18T18:30:49.275Z,3.80
2023-01-18T18:33:18.349Z,3.63
2023-01-18T18:35:48.759Z,3.75
2023-01-18T18:38:18.857Z,3.97
2023-01-18T18:40:47.592Z,3.63
2023-01-18T18:43:15.605Z,3.59
2023-01-18T18:45:45.333Z,3.63
2023-01-18T18:48:15.731Z,3.70
2023-01-18T18:50:43.983Z,3.65
2023-01-18T18:53:12.012Z,3.57
2023-01-18T18:55:40.368Z,3.67
2023-01-18T18:58:08.282Z,3.66
2023-01-18T19:00:37.102Z,3.55
2023-01-18T19:03:07.934Z,3.50
2023-01-18T19:05:38.261Z,3.53
2023-01-18T19:08:06.673Z,3.43
2023-01-18T19:10:35.164Z,3.65
2023-01-18T19:13:04.881Z,3.84
2023-01-18T19:15:33.066Z,3.71
2023-01-18T19:18:01.420Z,3.48
2023-01-18T19:20:30.276Z,3.82
2023-01-18T19:23:01.430Z,3.72
2023-01-18T19:25:29.732Z,3.73
2023-01-18T19:27:57.765Z,3.69
2023-01-18T19:30:25.868Z,3.78
2023-01-18T19:32:54.054Z,3.82
2023-01-18T19:35:22.294Z,3.84
2023-01-18T19:37:50.901Z,3.79
2023-01-18T19:40:21.257Z,3.84
2023-01-18T19:42:54.974Z,3.89
2023-01-18T19:45:28.136Z,3.97
2023-01-18T19:47:57.924Z,3.87
2023-01-18T19:50:26.972Z,3.86
2023-01-18T19:52:55.271Z,3.96
2023-01-18T19:55:25.689Z,3.97
2023-01-18T19:57:56.413Z,3.77
2023-01-18T20:00:24.520Z,3.77
2023-01-18T20:02:53.553Z,3.68
2023-01-18T20:05:22.024Z,3.69
2023-01-18T20:07:50.379Z,3.93
2023-01-18T20:10:20.521Z,3.90
2023-01-18T20:12:50.735Z,3.96
2023-01-18T20:15:19.959Z,3.93
2023-01-18T20:17:48.396Z,3.87
2023-01-18T20:20:27.359Z,3.98
2023-01-18T20:23:00.894Z,3.75
2023-01-18T20:25:30.900Z,3.90
2023-01-18T20:28:01.462Z,3.97
2023-01-18T20:30:30.448Z,4.25
2023-01-18T20:32:59.260Z,4.18
2023-01-18T20:35:28.685Z,4.06
2023-01-18T20:37:56.743Z,4.24
2023-01-18T20:40:26.408Z,4.26
2023-01-18T20:42:55.460Z,4.27
2023-01-18T20:45:26.573Z,4.08
2023-01-18T20:47:56.081Z,4.14
2023-01-18T20:50:28.967Z,4.29
2023-01-18T20:52:58.211Z,4.33
2023-01-18T20:55:26.956Z,4.50
2023-01-18T20:57:55.361Z,4.43
2023-01-18T21:00:25.093Z,4.39
2023-01-18T21:02:53.061Z,4.25
2023-01-18T21:05:21.642Z,4.37
2023-01-18T21:07:49.705Z,4.34
2023-01-18T21:10:18.627Z,4.29
2023-01-18T21:12:48.259Z,4.40
2023-01-18T21:15:17.221Z,4.31
2023-01-18T21:17:46.549Z,4.35
2023-01-18T21:20:15.672Z,4.35
2023-01-18T21:22:44.415Z,4.36
2023-01-18T21:25:13.048Z,4.41
2023-01-18T21:27:43.629Z,4.54
2023-01-18T21:30:14.122Z,4.60
2023-01-18T21:32:42.542Z,4.59
2023-01-18T21:35:12.446Z,4.70
2023-01-18T21:37:41.268Z,4.46
2023-01-18T21:40:10.635Z,4.44
2023-01-18T21:43:10.592Z,4.59
2023-01-18T21:45:58.069Z,4.80
2023-01-18T21:48:27.256Z,4.82
2023-01-18T21:51:17.930Z,4.88
2023-01-18T21:54:04.260Z,4.96
2023-01-18T21:56:32.186Z,4.93
2023-01-18T21:59:01.081Z,4.87
2023-01-18T22:01:34.340Z,4.77
2023-01-18T22:04:20.922Z,4.87
2023-01-18T22:06:51.020Z,4.85
2023-01-18T22:09:18.991Z,4.63
2023-01-18T22:11:47.050Z,4.83
2023-01-18T22:14:14.984Z,4.63
2023-01-18T22:16:43.221Z,4.56
2023-01-18T22:19:12.139Z,4.58
2023-01-18T22:21:40.351Z,4.57
2023-01-18T22:24:10.141Z,4.73
2023-01-18T22:26:38.978Z,4.68
2023-01-18T22:29:06.956Z,4.81
2023-01-18T22:31:35.056Z,4.52
2023-01-18T22:34:05.468Z,4.70
2023-01-18T22:36:33.677Z,4.53
2023-01-18T22:39:02.082Z,4.64
2023-01-18T22:41:31.494Z,4.58
2023-01-18T22:43:59.369Z,4.53
2023-01-18T22:46:27.349Z,4.74
2023-01-18T22:48:55.401Z,4.60
2023-01-18T22:51:24.365Z,4.61
2023-01-18T22:53:53.329Z,4.38
2023-01-18T22:56:23.291Z,4.63
2023-01-18T22:58:53.035Z,4.70
2023-01-18T23:01:23.140Z,4.68
2023-01-18T23:03:51.186Z,4.68
2023-01-18T23:06:20.686Z,4.54
2023-01-18T23:08:50.202Z,4.60
2023-01-18T23:11:21.157Z,4.75
2023-01-18T23:14:05.950Z,4.77
2023-01-18T23:16:53.151Z,4.95
2023-01-18T23:19:25.464Z,4.88
2023-01-18T23:21:54.034Z,4.88
2023-01-18T23:24:23.391Z,5.00
2023-01-18T23:26:52.512Z,4.86
2023-01-18T23:29:21.256Z,4.92
2023-01-18T23:31:50.518Z,4.96
2023-01-18T23:34:18.668Z,4.88
2023-01-18T23:36:46.713Z,4.80
2023-01-18T23:39:32.418Z,4.86
2023-01-18T23:42:17.661Z,4.90
2023-01-18T23:45:03.283Z,4.90
2023-01-18T23:47:50.515Z,4.94
2023-01-18T23:50:35.961Z,4.84
2023-01-18T23:53:21.236Z,4.74
2023-01-18T23:55:52.243Z,4.80
2023-01-18T23:58:20.235Z,4.84
